createdAt,value
2022-09-01T00:01:52.044Z,102344.81
2022-09-01T00:04:26.070Z,102354.34
2022-09-01T00:06:55.269Z,102335.59
2022-09-01T00:09:23.548Z,102307.88
2022-09-01T00:11:53.124Z,102290.91
2022-09-01T00:14:29.869Z,102308.06
2022-09-01T00:17:03.764Z,102346.97
2022-09-01T00:19:30.864Z,102345.34
2022-09-01T00:21:57.952Z,102327.16
2022-09-01T00:24:26.442Z,102314.53
2022-09-01T00:26:54.298Z,102338.06
2022-09-01T00:29:21.516Z,102298.16
2022-09-01T00:31:48.603Z,102310.16
2022-09-01T00:34:16.042Z,102323.03
2022-09-01T00:36:44.570Z,102330.75
2022-09-01T00:39:12.523Z,102289.13
2022-09-01T00:41:42.975Z,102281.25
2022-09-01T00:44:14.511Z,102292.94
2022-09-01T00:46:49.728Z,102321.41
2022-09-01T00:49:42.039Z,102324.84
2022-09-01T00:52:15.946Z,102328.97
2022-09-01T00:54:46.629Z,102296.91
2022-09-01T00:57:15.558Z,102294.28
2022-09-01T00:59:57.326Z,102269.34
2022-09-01T01:02:24.207Z,102311.94
2022-09-01T01:04:52.965Z,102285.31
2022-09-01T01:07:23.140Z,102282.81
2022-09-01T01:09:51.506Z,102313.88
2022-09-01T01:12:18.832Z,102245.34
2022-09-01T01:14:50.742Z,102304.94
2022-09-01T01:17:20.898Z,102303.94
2022-09-01T01:20:12.131Z,102299.63
2022-09-01T01:23:03.621Z,102298.03
2022-09-01T01:25:36.202Z,102276.75
2022-09-01T01:28:09.253Z,102299.34
2022-09-01T01:30:39.781Z,102297.44
2022-09-01T01:33:07.373Z,102245.56
2022-09-01T01:35:35.493Z,102286.31
2022-09-01T01:38:04.988Z,102266.59
2022-09-01T01:40:31.835Z,102270.22
2022-09-01T01:43:01.134Z,102258.13
2022-09-01T01:45:28.612Z,102293.69
2022-09-01T01:47:56.591Z,102253.88
2022-09-01T01:50:35.988Z,102293.69
2022-09-01T01:53:11.289Z,102285.06
2022-09-01T01:55:40.668Z,102266.81
2022-09-01T01:58:12.463Z,102275.56
2022-09-01T02:00:39.687Z,102285.84
2022-09-01T02:03:07.653Z,102252.97
2022-09-01T02:05:36.918Z,102268.69
2022-09-01T02:08:06.903Z,102281.03
2022-09-01T02:10:42.312Z,102273.81
2022-09-01T02:13:12.183Z,102273.56
2022-09-01T02:15:45.715Z,102261.72
2022-09-01T02:18:15.513Z,102267.84
2022-09-01T02:20:43.848Z,102271.13
2022-09-01T02:23:11.706Z,102247.47
2022-09-01T02:26:05.171Z,102206.72
2022-09-01T02:28:35.043Z,102257.66
2022-09-01T02:31:03.993Z,102233.56
2022-09-01T02:33:32.278Z,102257.91
2022-09-01T02:36:02.545Z,102227.91
2022-09-01T02:38:31.296Z,102266.31
2022-09-01T02:40:59.176Z,102234.25
2022-09-01T02:43:28.459Z,102266.38
2022-09-01T02:45:59.740Z,102241.22
2022-09-01T02:48:37.347Z,102233.72
2022-09-01T02:51:08.326Z,102260.72
2022-09-01T02:53:36.194Z,102269.34
2022-09-01T02:56:09.698Z,102258.19
2022-09-01T02:58:45.831Z,102227.22
2022-09-01T03:01:20.473Z,102234.16
2022-09-01T03:03:48.654Z,102259.31
2022-09-01T03:06:18.613Z,102207.22
2022-09-01T03:08:45.964Z,102248.81
2022-09-01T03:11:13.412Z,102207.22
2022-09-01T03:13:41.342Z,102246.31
2022-09-01T03:16:09.307Z,102240.25
2022-09-01T03:18:37.070Z,102198.69
2022-09-01T03:21:04.210Z,102205.31
2022-09-01T03:23:31.582Z,102228.56
2022-09-01T03:25:58.738Z,102227.59
2022-09-01T03:28:26.045Z,102213.72
2022-09-01T03:30:55.381Z,102192.28
2022-09-01T03:33:24.028Z,102187.06
2022-09-01T03:35:51.239Z,102225.09
2022-09-01T03:38:22.233Z,102188.59
2022-09-01T03:40:52.915Z,102218.94
2022-09-01T03:43:23.629Z,102216.41
2022-09-01T03:45:50.458Z,102184.22
2022-09-01T03:48:17.402Z,102220.84
2022-09-01T03:50:46.480Z,102186.97
2022-09-01T03:53:22.900Z,102222.59
2022-09-01T03:55:50.538Z,102180.25
2022-09-01T03:58:19.583Z,102223.56
2022-09-01T04:00:53.337Z,102222.81
2022-09-01T04:03:28.793Z,102216.06
2022-09-01T04:05:56.498Z,102216.28
2022-09-01T04:08:32.630Z,102216.41
2022-09-01T04:11:16.580Z,102174.81
2022-09-01T04:13:43.311Z,102186.00
2022-09-01T04:16:44.272Z,102182.41
2022-09-01T04:19:25.793Z,102180.44
2022-09-01T04:21:55.960Z,102206.28
2022-09-01T04:24:28.127Z,102208.78
2022-09-01T04:26:58.750Z,102151.41
2022-09-01T04:29:29.353Z,102197.09
2022-09-01T04:32:05.669Z,102197.03
2022-09-01T04:34:38.790Z,102196.94
2022-09-01T04:37:18.351Z,102192.63
2022-09-01T04:39:56.555Z,102138.72
2022-09-01T04:42:27.459Z,102149.88
2022-09-01T04:44:56.640Z,102196.69
2022-09-01T04:47:35.455Z,102162.78
2022-09-01T04:50:13.137Z,102138.63
2022-09-01T04:52:42.384Z,102199.53
2022-09-01T04:55:17.954Z,102169.22
2022-09-01T04:57:49.806Z,102201.75
2022-09-01T05:00:25.205Z,102195.81
2022-09-01T05:02:54.652Z,102169.78
2022-09-01T05:05:23.212Z,102189.94
2022-09-01T05:07:54.677Z,102201.31
2022-09-01T05:10:23.525Z,102171.03
2022-09-01T05:12:52.572Z,102151.00
2022-09-01T05:15:21.016Z,102196.16
2022-09-01T05:17:47.767Z,102183.13
2022-09-01T05:20:14.638Z,102144.84
2022-09-01T05:22:42.179Z,102164.94
2022-09-01T05:25:13.526Z,102150.16
2022-09-01T05:27:49.833Z,102175.34
2022-09-01T05:30:18.177Z,102126.78
2022-09-01T05:32:47.425Z,102146.81
2022-09-01T05:35:14.426Z,102206.75
2022-09-01T05:37:42.890Z,102168.53
2022-09-01T05:40:16.446Z,102200.56
2022-09-01T05:42:46.606Z,102168.34
2022-09-01T05:45:14.414Z,102167.31
2022-09-01T05:47:42.051Z,102173.25
2022-09-01T05:50:14.312Z,102167.00
2022-09-01T05:52:44.605Z,102160.81
2022-09-01T05:55:11.499Z,102158.91
2022-09-01T05:57:39.947Z,102147.69
2022-09-01T06:00:13.520Z,102153.66
2022-09-01T06:02:43.165Z,102195.25
2022-09-01T06:05:11.117Z,102191.72
2022-09-01T06:07:38.259Z,102154.59
2022-09-01T06:10:05.650Z,102198.81
2022-09-01T06:12:33.970Z,102189.34
2022-09-01T13:34:10.359Z,101947.06
2022-09-01T13:42:00.798Z,101981.09
2022-09-01T13:55:25.429Z,101953.56
2022-09-01T14:24:50.477Z,101936.03
2022-09-01T14:43:32.935Z,101891.91
2022-09-01T15:13:04.192Z,101886.69
2022-09-01T15:50:31.579Z,101814.19
2022-09-01T15:53:03.732Z,101848.03
2022-09-01T15:55:38.059Z,101820.44
2022-09-01T15:58:04.968Z,101825.22
2022-09-01T16:03:13.625Z,101797.06
2022-09-01T16:05:43.030Z,101849.13
2022-09-01T16:08:13.655Z,101797.00
2022-09-01T16:10:42.549Z,101835.88
2022-09-01T16:16:07.829Z,101796.56
2022-09-01T16:18:57.300Z,101842.84
2022-09-01T16:45:48.026Z,101827.63
2022-09-01T16:48:34.867Z,101827.94
2022-09-01T16:51:19.162Z,101805.63
2022-09-01T16:54:05.056Z,101821.63
2022-09-01T16:56:47.921Z,101786.75
2022-09-01T16:59:35.779Z,101829.03
2022-09-01T17:02:47.953Z,101834.97
2022-09-01T17:05:22.076Z,101835.81
2022-09-01T17:07:50.984Z,101810.09
2022-09-01T17:16:19.146Z,101773.53
2022-09-01T17:32:57.055Z,101822.50
2022-09-01T17:41:42.717Z,101817.41
2022-09-01T17:44:22.911Z,101823.72
2022-09-01T18:53:15.972Z,101821.47
2022-09-01T18:56:11.352Z,101810.13
2022-09-01T18:58:53.096Z,101786.66
2022-09-01T19:01:48.542Z,101830.81
2022-09-01T19:04:18.375Z,101812.66
2022-09-01T19:07:00.310Z,101823.59
2022-09-01T19:09:57.415Z,101783.13
2022-09-01T19:12:45.311Z,101823.38
2022-09-01T19:15:38.649Z,101810.41
2022-09-01T19:18:12.882Z,101824.50
2022-09-01T19:20:43.814Z,101820.97
2022-09-01T19:23:17.306Z,101822.16
2022-09-01T19:25:45.594Z,101809.72
2022-09-01T19:28:19.005Z,101822.53
2022-09-01T19:30:51.782Z,101823.59
2022-09-01T19:33:26.459Z,101829.09
2022-09-01T19:35:57.675Z,101812.44
2022-09-01T19:38:27.925Z,101827.50
2022-09-01T19:41:06.703Z,101820.13
2022-09-01T19:43:37.420Z,101809.97
2022-09-01T19:46:20.509Z,101809.06
2022-09-01T19:49:02.743Z,101818.91
2022-09-01T19:51:49.237Z,101818.34
2022-09-01T19:54:41.007Z,101813.88
2022-09-01T19:57:25.079Z,101794.28
2022-09-01T20:00:13.904Z,101820.75
2022-09-01T20:03:08.619Z,101813.84
2022-09-01T20:05:42.064Z,101807.38
2022-09-01T20:08:17.045Z,101802.59
2022-09-01T20:11:08.010Z,101789.66
2022-09-01T20:14:12.107Z,101798.00
2022-09-01T20:16:53.351Z,101788.94
2022-09-01T20:19:31.623Z,101796.19
2022-09-01T20:22:23.914Z,101789.19
2022-09-01T20:25:09.827Z,101795.84
2022-09-01T20:27:43.258Z,101802.41
2022-09-01T20:30:17.812Z,101797.72
2022-09-01T20:33:10.170Z,101798.09
2022-09-01T20:35:44.426Z,101767.22
2022-09-01T20:38:39.526Z,101791.38
2022-09-01T20:41:18.459Z,101792.16
2022-09-01T20:43:49.313Z,101783.22
2022-09-01T20:46:21.386Z,101771.53
2022-09-01T20:48:48.754Z,101769.84
2022-09-01T20:51:26.138Z,101769.06
2022-09-01T20:54:13.366Z,101779.75
2022-09-01T20:56:51.110Z,101776.59
2022-09-01T20:59:26.711Z,101764.19
2022-09-01T21:02:01.530Z,101757.75
2022-09-01T21:04:50.637Z,101760.16
2022-09-01T21:08:00.798Z,101766.16
2022-09-01T21:10:36.717Z,101770.66
2022-09-01T21:13:24.923Z,101770.03
2022-09-01T21:16:21.751Z,101751.41
2022-09-01T21:19:10.079Z,101761.66
2022-09-01T21:21:54.494Z,101757.13
2022-09-01T21:24:21.286Z,101759.44
2022-09-01T21:26:49.335Z,101759.53
2022-09-01T21:29:54.063Z,101748.47
2022-09-01T21:32:22.741Z,101755.31
2022-09-01T21:34:50.665Z,101726.25
2022-09-01T21:37:18.711Z,101740.66
2022-09-01T21:39:45.588Z,101749.69
2022-09-01T21:42:13.251Z,101747.97
2022-09-01T21:44:41.260Z,101742.50
2022-09-01T21:47:08.190Z,101733.81
2022-09-01T21:49:36.450Z,101729.44
2022-09-01T21:52:05.040Z,101735.34
2022-09-01T21:54:32.151Z,101735.59
2022-09-01T21:56:58.805Z,101730.78
2022-09-01T21:59:26.222Z,101726.00
2022-09-01T22:01:53.096Z,101737.63
2022-09-01T22:04:21.228Z,101739.19
2022-09-01T22:06:47.882Z,101736.44
2022-09-01T22:09:21.286Z,101749.56
2022-09-01T22:11:50.263Z,101754.34
2022-09-01T22:14:17.085Z,101746.69
2022-09-01T22:16:44.053Z,101737.78
2022-09-01T22:19:11.002Z,101754.41
2022-09-01T22:21:40.110Z,101732.03
2022-09-01T22:24:07.116Z,101743.69
2022-09-01T22:26:35.027Z,101731.34
2022-09-01T22:29:04.719Z,101740.91
2022-09-01T22:31:33.744Z,101723.50
2022-09-01T22:34:01.224Z,101738.16
2022-09-01T22:36:38.851Z,101735.81
2022-09-01T22:39:07.323Z,101734.34
2022-09-01T22:41:35.222Z,101724.00
2022-09-01T22:44:03.037Z,101727.44
2022-09-01T22:46:31.036Z,101726.94
2022-09-01T22:48:59.206Z,101726.72
2022-09-01T22:51:26.742Z,101676.81
2022-09-01T22:53:54.646Z,101677.94
2022-09-01T22:56:29.890Z,101711.25
2022-09-01T22:58:58.464Z,101734.91
2022-09-01T23:01:31.553Z,101682.59
2022-09-01T23:04:01.045Z,101722.22
2022-09-01T23:06:29.909Z,101671.59
2022-09-01T23:08:57.692Z,101706.47
2022-09-01T23:11:25.165Z,101657.63
2022-09-01T23:13:52.010Z,101652.59
2022-09-01T23:16:20.138Z,101670.50
2022-09-01T23:18:48.071Z,101668.28
2022-09-01T23:21:17.985Z,101662.59
2022-09-01T23:23:45.532Z,101666.19
2022-09-01T23:26:13.710Z,101690.91
2022-09-01T23:28:42.141Z,101693.66
2022-09-01T23:31:12.091Z,101685.75
2022-09-01T23:33:39.168Z,101682.31
2022-09-01T23:36:09.339Z,101616.28
2022-09-01T23:38:37.310Z,101622.13
2022-09-01T23:41:10.727Z,101657.84
2022-09-01T23:43:38.303Z,101688.47
2022-09-01T23:46:06.474Z,101649.72
2022-09-01T23:48:33.798Z,101666.31
2022-09-01T23:51:08.555Z,101669.47
2022-09-01T23:53:36.752Z,101656.31
2022-09-01T23:56:09.438Z,101669.88
2022-09-01T23:58:36.318Z,101625.50
